sensor_id;sensor_type;location;lat;lon;timestamp;P1;durP1;ratioP1;P2;durP2;ratioP2
23586;SDS011;11971;51.148;4.104;2023-05-10T00:00:31;100.70;;;40.80;;
23586;SDS011;11971;51.148;4.104;2023-05-10T00:02:58;95.27;;;41.27;;
23586;SDS011;11971;51.148;4.104;2023-05-10T00:05:24;102.35;;;40.70;;
23586;SDS011;11971;51.148;4.104;2023-05-10T00:07:51;106.43;;;41.85;;
23586;SDS011;11971;51.148;4.104;2023-05-10T00:10:18;96.43;;;40.78;;
23586;SDS011;11971;51.148;4.104;2023-05-10T00:12:45;103.57;;;41.20;;
23586;SDS011;11971;51.148;4.104;2023-05-10T00:15:12;104.07;;;41.53;;
23586;SDS011;11971;51.148;4.104;2023-05-10T00:17:40;101.28;;;41.60;;
23586;SDS011;11971;51.148;4.104;2023-05-10T00:20:07;102.80;;;41.60;;
23586;SDS011;11971;51.148;4.104;2023-05-10T00:22:34;96.95;;;41.42;;
23586;SDS011;11971;51.148;4.104;2023-05-10T00:25:01;98.82;;;42.03;;
23586;SDS011;11971;51.148;4.104;2023-05-10T00:27:28;100.32;;;42.17;;
23586;SDS011;11971;51.148;4.104;2023-05-10T00:29:54;100.60;;;42.20;;
23586;SDS011;11971;51.148;4.104;2023-05-10T00:32:21;105.50;;;43.40;;
23586;SDS011;11971;51.148;4.104;2023-05-10T00:34:49;105.25;;;43.90;;
23586;SDS011;11971;51.148;4.104;2023-05-10T00:37:17;103.03;;;42.55;;
23586;SDS011;11971;51.148;4.104;2023-05-10T00:39:43;107.45;;;44.17;;
23586;SDS011;11971;51.148;4.104;2023-05-10T00:42:10;107.68;;;43.85;;
23586;SDS011;11971;51.148;4.104;2023-05-10T00:44:37;112.13;;;44.63;;
23586;SDS011;11971;51.148;4.104;2023-05-10T00:47:04;99.82;;;43.42;;
23586;SDS011;11971;51.148;4.104;2023-05-10T00:49:30;102.88;;;43.47;;
23586;SDS011;11971;51.148;4.104;2023-05-10T00:51:58;114.15;;;44.50;;
23586;SDS011;11971;51.148;4.104;2023-05-10T00:54:27;108.95;;;44.78;;
23586;SDS011;11971;51.148;4.104;2023-05-10T00:56:53;111.38;;;44.33;;
23586;SDS011;11971;51.148;4.104;2023-05-10T00:59:22;108.03;;;44.10;;
23586;SDS011;11971;51.148;4.104;2023-05-10T01:01:48;111.63;;;44.75;;
23586;SDS011;11971;51.148;4.104;2023-05-10T01:04:16;104.35;;;44.38;;
23586;SDS011;11971;51.148;4.104;2023-05-10T01:06:45;113.70;;;44.53;;
23586;SDS011;11971;51.148;4.104;2023-05-10T01:09:13;107.63;;;44.33;;
23586;SDS011;11971;51.148;4.104;2023-05-10T01:11:40;106.27;;;44.67;;
23586;SDS011;11971;51.148;4.104;2023-05-10T01:14:06;113.57;;;45.00;;
23586;SDS011;11971;51.148;4.104;2023-05-10T01:16:34;103.18;;;44.17;;
23586;SDS011;11971;51.148;4.104;2023-05-10T01:21:31;99.70;;;43.35;;
23586;SDS011;11971;51.148;4.104;2023-05-10T01:27:17;114.28;;;44.83;;
23586;SDS011;11971;51.148;4.104;2023-05-10T01:33:07;110.90;;;44.78;;
23586;SDS011;11971;51.148;4.104;2023-05-10T01:35:37;108.28;;;44.45;;
23586;SDS011;11971;51.148;4.104;2023-05-10T01:38:18;112.45;;;44.80;;
23586;SDS011;11971;51.148;4.104;2023-05-10T01:40:52;111.55;;;45.15;;
23586;SDS011;11971;51.148;4.104;2023-05-10T01:43:24;113.88;;;45.58;;
23586;SDS011;11971;51.148;4.104;2023-05-10T01:45:59;109.72;;;46.08;;
23586;SDS011;11971;51.148;4.104;2023-05-10T01:48:31;112.88;;;45.55;;
23586;SDS011;11971;51.148;4.104;2023-05-10T01:53:25;113.90;;;45.92;;
23586;SDS011;11971;51.148;4.104;2023-05-10T01:55:52;116.60;;;47.30;;
23586;SDS011;11971;51.148;4.104;2023-05-10T01:58:21;113.72;;;45.63;;
23586;SDS011;11971;51.148;4.104;2023-05-10T02:00:50;119.13;;;47.25;;
23586;SDS011;11971;51.148;4.104;2023-05-10T02:03:18;115.78;;;46.55;;
23586;SDS011;11971;51.148;4.104;2023-05-10T02:05:49;121.15;;;47.20;;
23586;SDS011;11971;51.148;4.104;2023-05-10T02:08:17;117.55;;;46.38;;
23586;SDS011;11971;51.148;4.104;2023-05-10T02:10:45;118.53;;;46.38;;
23586;SDS011;11971;51.148;4.104;2023-05-10T02:13:12;120.68;;;47.55;;
23586;SDS011;11971;51.148;4.104;2023-05-10T02:15:39;123.38;;;48.60;;
23586;SDS011;11971;51.148;4.104;2023-05-10T02:18:06;117.35;;;48.03;;
23586;SDS011;11971;51.148;4.104;2023-05-10T02:20:34;115.50;;;48.22;;
23586;SDS011;11971;51.148;4.104;2023-05-10T02:23:03;119.38;;;47.90;;
23586;SDS011;11971;51.148;4.104;2023-05-10T02:25:30;117.45;;;47.25;;
23586;SDS011;11971;51.148;4.104;2023-05-10T02:27:58;117.22;;;47.67;;
23586;SDS011;11971;51.148;4.104;2023-05-10T02:30:26;117.22;;;46.85;;
23586;SDS011;11971;51.148;4.104;2023-05-10T02:32:54;122.82;;;49.30;;
23586;SDS011;11971;51.148;4.104;2023-05-10T02:35:20;126.35;;;49.90;;
23586;SDS011;11971;51.148;4.104;2023-05-10T02:37:48;123.75;;;50.00;;
23586;SDS011;11971;51.148;4.104;2023-05-10T02:40:17;130.98;;;50.95;;
23586;SDS011;11971;51.148;4.104;2023-05-10T02:42:45;129.27;;;49.80;;
23586;SDS011;11971;51.148;4.104;2023-05-10T02:45:14;131.07;;;47.78;;
23586;SDS011;11971;51.148;4.104;2023-05-10T02:47:43;142.82;;;54.55;;
23586;SDS011;11971;51.148;4.104;2023-05-10T02:50:10;137.40;;;51.85;;
23586;SDS011;11971;51.148;4.104;2023-05-10T02:52:39;142.27;;;52.38;;
23586;SDS011;11971;51.148;4.104;2023-05-10T02:55:08;153.98;;;55.10;;
23586;SDS011;11971;51.148;4.104;2023-05-10T02:57:38;161.55;;;56.83;;
23586;SDS011;11971;51.148;4.104;2023-05-10T03:00:08;159.80;;;57.75;;
23586;SDS011;11971;51.148;4.104;2023-05-10T03:02:35;148.23;;;54.40;;
23586;SDS011;11971;51.148;4.104;2023-05-10T03:05:02;146.07;;;54.20;;
23586;SDS011;11971;51.148;4.104;2023-05-10T03:07:29;135.45;;;51.88;;
23586;SDS011;11971;51.148;4.104;2023-05-10T03:09:56;130.55;;;50.90;;
23586;SDS011;11971;51.148;4.104;2023-05-10T03:12:24;132.38;;;49.80;;
23586;SDS011;11971;51.148;4.104;2023-05-10T03:15:00;132.82;;;49.90;;
23586;SDS011;11971;51.148;4.104;2023-05-10T03:17:30;133.02;;;50.35;;
23586;SDS011;11971;51.148;4.104;2023-05-10T03:20:03;137.50;;;50.03;;
23586;SDS011;11971;51.148;4.104;2023-05-10T03:22:34;134.13;;;50.80;;
23586;SDS011;11971;51.148;4.104;2023-05-10T03:25:04;139.38;;;51.20;;
23586;SDS011;11971;51.148;4.104;2023-05-10T03:27:34;141.30;;;52.65;;
23586;SDS011;11971;51.148;4.104;2023-05-10T03:30:04;143.65;;;52.78;;
23586;SDS011;11971;51.148;4.104;2023-05-10T03:32:32;156.38;;;56.53;;
23586;SDS011;11971;51.148;4.104;2023-05-10T03:34:59;152.05;;;54.65;;
23586;SDS011;11971;51.148;4.104;2023-05-10T03:37:26;153.93;;;54.75;;
23586;SDS011;11971;51.148;4.104;2023-05-10T03:39:53;158.35;;;54.88;;
23586;SDS011;11971;51.148;4.104;2023-05-10T03:42:19;148.63;;;53.72;;
23586;SDS011;11971;51.148;4.104;2023-05-10T03:44:46;152.10;;;54.10;;
23586;SDS011;11971;51.148;4.104;2023-05-10T03:47:15;153.68;;;54.28;;
23586;SDS011;11971;51.148;4.104;2023-05-10T03:49:42;161.77;;;55.63;;
23586;SDS011;11971;51.148;4.104;2023-05-10T03:52:09;151.80;;;55.38;;
23586;SDS011;11971;51.148;4.104;2023-05-10T03:54:36;152.23;;;54.90;;
23586;SDS011;11971;51.148;4.104;2023-05-10T03:57:02;150.68;;;55.28;;
23586;SDS011;11971;51.148;4.104;2023-05-10T03:59:29;154.05;;;56.03;;
23586;SDS011;11971;51.148;4.104;2023-05-10T04:01:56;160.95;;;56.08;;
23586;SDS011;11971;51.148;4.104;2023-05-10T04:04:24;156.48;;;54.10;;
23586;SDS011;11971;51.148;4.104;2023-05-10T04:06:51;150.68;;;54.40;;
23586;SDS011;11971;51.148;4.104;2023-05-10T04:09:18;159.20;;;55.35;;
23586;SDS011;11971;51.148;4.104;2023-05-10T04:11:45;157.95;;;56.10;;
23586;SDS011;11971;51.148;4.104;2023-05-10T04:14:11;167.20;;;57.78;;
23586;SDS011;11971;51.148;4.104;2023-05-10T04:16:38;168.60;;;61.85;;
23586;SDS011;11971;51.148;4.104;2023-05-10T04:19:05;188.35;;;65.82;;
23586;SDS011;11971;51.148;4.104;2023-05-10T04:21:33;193.75;;;68.18;;
23586;SDS011;11971;51.148;4.104;2023-05-10T04:24:00;186.90;;;67.37;;
23586;SDS011;11971;51.148;4.104;2023-05-10T04:26:26;192.02;;;68.10;;
23586;SDS011;11971;51.148;4.104;2023-05-10T04:28:53;202.32;;;71.82;;
23586;SDS011;11971;51.148;4.104;2023-05-10T04:31:20;192.18;;;67.65;;
23586;SDS011;11971;51.148;4.104;2023-05-10T04:33:47;195.07;;;69.68;;
23586;SDS011;11971;51.148;4.104;2023-05-10T04:36:14;180.55;;;64.55;;
23586;SDS011;11971;51.148;4.104;2023-05-10T04:38:43;184.88;;;67.00;;
23586;SDS011;11971;51.148;4.104;2023-05-10T04:41:10;188.18;;;67.05;;
23586;SDS011;11971;51.148;4.104;2023-05-10T04:43:37;175.35;;;64.00;;
23586;SDS011;11971;51.148;4.104;2023-05-10T04:46:04;172.60;;;62.42;;
23586;SDS011;11971;51.148;4.104;2023-05-10T04:48:32;173.82;;;62.25;;
23586;SDS011;11971;51.148;4.104;2023-05-10T04:50:59;167.80;;;60.58;;
23586;SDS011;11971;51.148;4.104;2023-05-10T04:53:25;161.13;;;59.72;;
23586;SDS011;11971;51.148;4.104;2023-05-10T04:55:54;151.38;;;57.05;;
23586;SDS011;11971;51.148;4.104;2023-05-10T04:58:20;154.25;;;57.65;;
23586;SDS011;11971;51.148;4.104;2023-05-10T05:00:47;155.88;;;57.90;;
23586;SDS011;11971;51.148;4.104;2023-05-10T05:03:14;157.68;;;59.17;;
23586;SDS011;11971;51.148;4.104;2023-05-10T05:05:41;147.65;;;56.25;;
23586;SDS011;11971;51.148;4.104;2023-05-10T05:08:07;157.05;;;58.00;;
23586;SDS011;11971;51.148;4.104;2023-05-10T05:10:34;162.55;;;59.08;;
23586;SDS011;11971;51.148;4.104;2023-05-10T05:13:02;160.43;;;59.00;;
23586;SDS011;11971;51.148;4.104;2023-05-10T05:15:29;156.52;;;59.00;;
23586;SDS011;11971;51.148;4.104;2023-05-10T05:17:56;162.25;;;60.67;;
23586;SDS011;11971;51.148;4.104;2023-05-10T05:20:22;165.80;;;61.35;;
23586;SDS011;11971;51.148;4.104;2023-05-10T05:22:49;166.35;;;61.45;;
23586;SDS011;11971;51.148;4.104;2023-05-10T05:25:17;165.23;;;60.47;;
23586;SDS011;11971;51.148;4.104;2023-05-10T05:27:44;161.50;;;60.40;;
23586;SDS011;11971;51.148;4.104;2023-05-10T05:30:12;159.95;;;61.28;;
23586;SDS011;11971;51.148;4.104;2023-05-10T05:32:39;161.27;;;60.67;;
23586;SDS011;11971;51.148;4.104;2023-05-10T05:35:06;152.48;;;58.53;;
23586;SDS011;11971;51.148;4.104;2023-05-10T05:37:33;155.25;;;59.13;;
23586;SDS011;11971;51.148;4.104;2023-05-10T05:40:00;133.82;;;54.22;;
23586;SDS011;11971;51.148;4.104;2023-05-10T05:42:27;143.43;;;53.38;;
23586;SDS011;11971;51.148;4.104;2023-05-10T05:44:54;134.63;;;52.90;;
23586;SDS011;11971;51.148;4.104;2023-05-10T05:47:22;131.02;;;52.03;;
23586;SDS011;11971;51.148;4.104;2023-05-10T05:49:49;131.00;;;50.43;;
23586;SDS011;11971;51.148;4.104;2023-05-10T05:52:15;129.52;;;51.55;;
23586;SDS011;11971;51.148;4.104;2023-05-10T05:54:42;130.25;;;50.65;;
23586;SDS011;11971;51.148;4.104;2023-05-10T05:57:09;118.18;;;49.58;;
23586;SDS011;11971;51.148;4.104;2023-05-10T05:59:38;125.80;;;49.85;;
23586;SDS011;11971;51.148;4.104;2023-05-10T06:02:08;124.85;;;50.53;;
23586;SDS011;11971;51.148;4.104;2023-05-10T06:04:37;130.27;;;51.58;;
23586;SDS011;11971;51.148;4.104;2023-05-10T06:07:05;118.80;;;49.20;;
23586;SDS011;11971;51.148;4.104;2023-05-10T06:09:31;128.73;;;50.95;;
23586;SDS011;11971;51.148;4.104;2023-05-10T06:11:58;131.93;;;51.97;;
23586;SDS011;11971;51.148;4.104;2023-05-10T06:14:25;122.00;;;52.10;;
23586;SDS011;11971;51.148;4.104;2023-05-10T06:16:52;134.38;;;52.70;;
23586;SDS011;11971;51.148;4.104;2023-05-10T06:19:19;131.13;;;52.25;;
23586;SDS011;11971;51.148;4.104;2023-05-10T06:21:47;125.45;;;51.65;;
23586;SDS011;11971;51.148;4.104;2023-05-10T06:24:13;116.25;;;49.33;;
23586;SDS011;11971;51.148;4.104;2023-05-10T06:26:40;119.20;;;49.13;;
23586;SDS011;11971;51.148;4.104;2023-05-10T06:29:07;117.05;;;48.53;;
23586;SDS011;11971;51.148;4.104;2023-05-10T06:31:34;116.35;;;48.70;;
23586;SDS011;11971;51.148;4.104;2023-05-10T06:34:00;118.70;;;48.83;;
23586;SDS011;11971;51.148;4.104;2023-05-10T06:36:27;117.28;;;48.22;;
23586;SDS011;11971;51.148;4.104;2023-05-10T06:38:55;112.82;;;47.15;;
23586;SDS011;11971;51.148;4.104;2023-05-10T06:41:22;109.47;;;47.40;;
23586;SDS011;11971;51.148;4.104;2023-05-10T06:43:49;120.35;;;47.45;;
23586;SDS011;11971;51.148;4.104;2023-05-10T06:46:15;122.63;;;48.00;;
23586;SDS011;11971;51.148;4.104;2023-05-10T06:48:42;112.03;;;46.63;;
23586;SDS011;11971;51.148;4.104;2023-05-10T06:51:09;108.95;;;47.13;;
23586;SDS011;11971;51.148;4.104;2023-05-10T06:53:36;115.93;;;48.95;;
23586;SDS011;11971;51.148;4.104;2023-05-10T06:56:05;114.55;;;47.75;;
23586;SDS011;11971;51.148;4.104;2023-05-10T06:58:32;111.63;;;48.45;;
23586;SDS011;11971;51.148;4.104;2023-05-10T07:01:02;109.13;;;47.25;;
23586;SDS011;11971;51.148;4.104;2023-05-10T07:03:30;114.40;;;46.80;;
23586;SDS011;11971;51.148;4.104;2023-05-10T07:05:59;110.45;;;47.25;;
23586;SDS011;11971;51.148;4.104;2023-05-10T07:08:28;115.55;;;48.08;;
23586;SDS011;11971;51.148;4.104;2023-05-10T07:10:58;109.82;;;47.58;;
23586;SDS011;11971;51.148;4.104;2023-05-10T07:13:27;112.20;;;47.10;;
23586;SDS011;11971;51.148;4.104;2023-05-10T07:15:54;106.00;;;46.30;;
23586;SDS011;11971;51.148;4.104;2023-05-10T07:18:21;105.43;;;44.92;;
23586;SDS011;11971;51.148;4.104;2023-05-10T07:20:47;104.93;;;44.90;;
23586;SDS011;11971;51.148;4.104;2023-05-10T07:23:14;104.32;;;44.88;;
23586;SDS011;11971;51.148;4.104;2023-05-10T07:25:44;103.30;;;43.97;;
23586;SDS011;11971;51.148;4.104;2023-05-10T07:28:11;101.28;;;45.20;;
23586;SDS011;11971;51.148;4.104;2023-05-10T07:30:39;104.95;;;44.22;;
23586;SDS011;11971;51.148;4.104;2023-05-10T07:33:06;109.17;;;44.90;;
23586;SDS011;11971;51.148;4.104;2023-05-10T07:35:34;102.82;;;43.85;;
23586;SDS011;11971;51.148;4.104;2023-05-10T07:38:01;103.10;;;42.80;;
23586;SDS011;11971;51.148;4.104;2023-05-10T07:40:28;97.40;;;41.95;;
23586;SDS011;11971;51.148;4.104;2023-05-10T07:42:55;102.20;;;43.42;;
23586;SDS011;11971;51.148;4.104;2023-05-10T07:45:21;100.53;;;42.33;;
23586;SDS011;11971;51.148;4.104;2023-05-10T07:47:50;96.88;;;41.88;;
23586;SDS011;11971;51.148;4.104;2023-05-10T07:50:17;111.53;;;46.80;;
23586;SDS011;11971;51.148;4.104;2023-05-10T07:52:43;131.13;;;51.90;;
23586;SDS011;11971;51.148;4.104;2023-05-10T07:55:10;134.13;;;53.08;;
23586;SDS011;11971;51.148;4.104;2023-05-10T07:57:37;118.53;;;48.40;;
23586;SDS011;11971;51.148;4.104;2023-05-10T08:00:05;117.72;;;48.47;;
23586;SDS011;11971;51.148;4.104;2023-05-10T08:02:32;116.78;;;47.63;;
23586;SDS011;11971;51.148;4.104;2023-05-10T08:05:02;106.32;;;44.88;;
23586;SDS011;11971;51.148;4.104;2023-05-10T08:07:30;104.97;;;44.80;;
23586;SDS011;11971;51.148;4.104;2023-05-10T08:09:57;102.45;;;43.55;;
23586;SDS011;11971;51.148;4.104;2023-05-10T08:12:23;118.85;;;48.80;;
23586;SDS011;11971;51.148;4.104;2023-05-10T08:14:50;127.32;;;52.70;;
23586;SDS011;11971;51.148;4.104;2023-05-10T08:17:17;139.23;;;56.05;;
23586;SDS011;11971;51.148;4.104;2023-05-10T08:19:44;107.63;;;44.65;;
23586;SDS011;11971;51.148;4.104;2023-05-10T08:22:12;103.78;;;43.13;;
23586;SDS011;11971;51.148;4.104;2023-05-10T08:24:38;97.07;;;41.53;;
23586;SDS011;11971;51.148;4.104;2023-05-10T08:27:07;95.38;;;39.85;;
23586;SDS011;11971;51.148;4.104;2023-05-10T08:29:36;94.82;;;40.13;;
23586;SDS011;11971;51.148;4.104;2023-05-10T08:32:05;97.63;;;40.53;;
23586;SDS011;11971;51.148;4.104;2023-05-10T08:34:32;95.05;;;41.00;;
23586;SDS011;11971;51.148;4.104;2023-05-10T08:36:59;99.43;;;41.28;;
23586;SDS011;11971;51.148;4.104;2023-05-10T08:39:27;93.88;;;40.40;;
23586;SDS011;11971;51.148;4.104;2023-05-10T08:41:54;94.43;;;40.85;;
23586;SDS011;11971;51.148;4.104;2023-05-10T08:44:25;94.95;;;40.67;;
23586;SDS011;11971;51.148;4.104;2023-05-10T08:46:52;96.55;;;40.08;;
23586;SDS011;11971;51.148;4.104;2023-05-10T08:49:20;94.17;;;40.47;;
23586;SDS011;11971;51.148;4.104;2023-05-10T08:51:48;95.15;;;40.65;;
23586;SDS011;11971;51.148;4.104;2023-05-10T08:54:18;93.82;;;40.40;;
23586;SDS011;11971;51.148;4.104;2023-05-10T08:56:46;95.97;;;41.22;;
23586;SDS011;11971;51.148;4.104;2023-05-10T08:59:14;103.50;;;43.25;;
23586;SDS011;11971;51.148;4.104;2023-05-10T09:01:41;107.30;;;45.42;;
23586;SDS011;11971;51.148;4.104;2023-05-10T09:04:10;118.60;;;47.20;;
23586;SDS011;11971;51.148;4.104;2023-05-10T09:06:37;107.63;;;46.08;;
23586;SDS011;11971;51.148;4.104;2023-05-10T09:09:05;117.00;;;47.25;;
23586;SDS011;11971;51.148;4.104;2023-05-10T09:11:31;120.05;;;46.80;;
23586;SDS011;11971;51.148;4.104;2023-05-10T09:14:00;117.18;;;47.20;;
23586;SDS011;11971;51.148;4.104;2023-05-10T09:16:27;116.75;;;46.90;;
23586;SDS011;11971;51.148;4.104;2023-05-10T09:18:54;115.13;;;46.53;;
23586;SDS011;11971;51.148;4.104;2023-05-10T09:21:21;114.18;;;46.80;;
23586;SDS011;11971;51.148;4.104;2023-05-10T09:23:47;113.65;;;46.47;;
23586;SDS011;11971;51.148;4.104;2023-05-10T09:26:15;116.45;;;46.70;;
23586;SDS011;11971;51.148;4.104;2023-05-10T09:28:52;117.18;;;46.53;;
23586;SDS011;11971;51.148;4.104;2023-05-10T09:31:22;122.03;;;46.75;;
23586;SDS011;11971;51.148;4.104;2023-05-10T09:33:49;112.60;;;46.17;;
23586;SDS011;11971;51.148;4.104;2023-05-10T09:36:17;114.50;;;46.03;;
23586;SDS011;11971;51.148;4.104;2023-05-10T09:38:47;112.03;;;46.28;;
23586;SDS011;11971;51.148;4.104;2023-05-10T09:41:17;111.38;;;44.88;;
23586;SDS011;11971;51.148;4.104;2023-05-10T09:43:46;105.22;;;43.65;;
23586;SDS011;11971;51.148;4.104;2023-05-10T09:46:13;107.45;;;43.78;;
23586;SDS011;11971;51.148;4.104;2023-05-10T09:48:43;107.65;;;43.92;;
23586;SDS011;11971;51.148;4.104;2023-05-10T09:51:16;117.57;;;46.00;;
23586;SDS011;11971;51.148;4.104;2023-05-10T09:53:45;105.85;;;43.53;;
23586;SDS011;11971;51.148;4.104;2023-05-10T09:56:12;106.88;;;44.28;;
23586;SDS011;11971;51.148;4.104;2023-05-10T09:58:39;111.97;;;45.05;;
23586;SDS011;11971;51.148;4.104;2023-05-10T10:01:09;104.78;;;44.13;;
23586;SDS011;11971;51.148;4.104;2023-05-10T10:03:40;107.93;;;44.28;;
23586;SDS011;11971;51.148;4.104;2023-05-10T10:06:10;104.55;;;43.35;;
23586;SDS011;11971;51.148;4.104;2023-05-10T10:08:37;107.25;;;44.70;;
23586;SDS011;11971;51.148;4.104;2023-05-10T10:11:04;107.93;;;44.85;;
23586;SDS011;11971;51.148;4.104;2023-05-10T10:13:30;114.47;;;45.33;;
23586;SDS011;11971;51.148;4.104;2023-05-10T10:16:00;105.55;;;43.97;;
23586;SDS011;11971;51.148;4.104;2023-05-10T10:18:27;105.57;;;44.42;;
23586;SDS011;11971;51.148;4.104;2023-05-10T10:20:56;105.35;;;44.58;;
23586;SDS011;11971;51.148;4.104;2023-05-10T10:23:23;105.53;;;44.13;;
23586;SDS011;11971;51.148;4.104;2023-05-10T10:25:50;101.35;;;42.63;;
23586;SDS011;11971;51.148;4.104;2023-05-10T10:28:21;103.30;;;43.85;;
23586;SDS011;11971;51.148;4.104;2023-05-10T10:30:51;108.50;;;44.10;;
23586;SDS011;11971;51.148;4.104;2023-05-10T10:33:28;104.45;;;43.63;;
23586;SDS011;11971;51.148;4.104;2023-05-10T10:36:02;104.70;;;43.95;;
23586;SDS011;11971;51.148;4.104;2023-05-10T10:38:36;104.28;;;43.88;;
23586;SDS011;11971;51.148;4.104;2023-05-10T10:41:08;104.97;;;43.90;;
23586;SDS011;11971;51.148;4.104;2023-05-10T10:43:36;108.10;;;44.38;;
23586;SDS011;11971;51.148;4.104;2023-05-10T10:46:12;106.50;;;44.22;;
23586;SDS011;11971;51.148;4.104;2023-05-10T10:48:40;104.18;;;43.97;;
23586;SDS011;11971;51.148;4.104;2023-05-10T10:51:08;103.47;;;43.42;;
23586;SDS011;11971;51.148;4.104;2023-05-10T10:53:36;109.85;;;44.35;;
23586;SDS011;11971;51.148;4.104;2023-05-10T10:56:07;107.80;;;43.90;;
23586;SDS011;11971;51.148;4.104;2023-05-10T10:58:35;105.13;;;43.80;;
23586;SDS011;11971;51.148;4.104;2023-05-10T11:01:10;108.95;;;43.70;;
23586;SDS011;11971;51.148;4.104;2023-05-10T11:03:38;100.15;;;43.05;;
23586;SDS011;11971;51.148;4.104;2023-05-10T11:06:04;102.55;;;43.08;;
23586;SDS011;11971;51.148;4.104;2023-05-10T11:08:34;103.50;;;43.58;;
23586;SDS011;11971;51.148;4.104;2023-05-10T11:11:07;104.60;;;43.88;;
23586;SDS011;11971;51.148;4.104;2023-05-10T11:13:37;107.28;;;43.42;;
23586;SDS011;11971;51.148;4.104;2023-05-10T11:16:12;102.30;;;42.97;;
23586;SDS011;11971;51.148;4.104;2023-05-10T11:18:41;102.57;;;42.92;;
23586;SDS011;11971;51.148;4.104;2023-05-10T11:21:18;103.22;;;43.25;;
23586;SDS011;11971;51.148;4.104;2023-05-10T11:23:50;103.65;;;42.28;;
23586;SDS011;11971;51.148;4.104;2023-05-10T11:26:21;101.70;;;43.38;;
23586;SDS011;11971;51.148;4.104;2023-05-10T11:28:50;105.97;;;43.28;;
23586;SDS011;11971;51.148;4.104;2023-05-10T11:31:18;102.75;;;43.42;;
23586;SDS011;11971;51.148;4.104;2023-05-10T11:33:45;103.90;;;43.05;;
23586;SDS011;11971;51.148;4.104;2023-05-10T11:36:14;103.80;;;43.00;;
23586;SDS011;11971;51.148;4.104;2023-05-10T11:38:42;102.78;;;42.67;;
23586;SDS011;11971;51.148;4.104;2023-05-10T11:41:10;101.55;;;42.63;;
23586;SDS011;11971;51.148;4.104;2023-05-10T11:43:38;101.18;;;42.75;;
23586;SDS011;11971;51.148;4.104;2023-05-10T11:46:06;102.95;;;43.22;;
23586;SDS011;11971;51.148;4.104;2023-05-10T11:48:33;103.40;;;43.15;;
23586;SDS011;11971;51.148;4.104;2023-05-10T11:51:00;104.82;;;43.13;;
23586;SDS011;11971;51.148;4.104;2023-05-10T11:53:27;101.13;;;42.50;;
23586;SDS011;11971;51.148;4.104;2023-05-10T11:55:55;99.90;;;42.90;;
23586;SDS011;11971;51.148;4.104;2023-05-10T11:58:26;101.25;;;43.30;;
23586;SDS011;11971;51.148;4.104;2023-05-10T12:00:53;99.75;;;42.88;;
23586;SDS011;11971;51.148;4.104;2023-05-10T12:03:20;102.53;;;42.95;;
23586;SDS011;11971;51.148;4.104;2023-05-10T12:05:47;102.20;;;42.75;;
23586;SDS011;11971;51.148;4.104;2023-05-10T12:08:13;103.35;;;43.63;;
23586;SDS011;11971;51.148;4.104;2023-05-10T12:10:41;103.05;;;42.65;;
23586;SDS011;11971;51.148;4.104;2023-05-10T12:13:10;103.85;;;42.95;;
23586;SDS011;11971;51.148;4.104;2023-05-10T12:15:40;103.15;;;43.45;;
23586;SDS011;11971;51.148;4.104;2023-05-10T12:18:08;98.78;;;43.28;;
23586;SDS011;11971;51.148;4.104;2023-05-10T12:20:35;103.68;;;43.38;;
23586;SDS011;11971;51.148;4.104;2023-05-10T12:23:03;105.78;;;43.60;;
23586;SDS011;11971;51.148;4.104;2023-05-10T12:25:30;99.80;;;42.85;;
23586;SDS011;11971;51.148;4.104;2023-05-10T12:27:59;103.90;;;42.78;;
23586;SDS011;11971;51.148;4.104;2023-05-10T12:30:27;98.57;;;42.38;;
23586;SDS011;11971;51.148;4.104;2023-05-10T12:33:00;99.55;;;42.13;;
23586;SDS011;11971;51.148;4.104;2023-05-10T12:35:29;101.45;;;43.53;;
23586;SDS011;11971;51.148;4.104;2023-05-10T12:37:56;100.38;;;43.28;;
23586;SDS011;11971;51.148;4.104;2023-05-10T12:40:23;102.35;;;44.17;;
23586;SDS011;11971;51.148;4.104;2023-05-10T12:42:50;106.07;;;43.38;;
23586;SDS011;11971;51.148;4.104;2023-05-10T12:45:18;104.45;;;44.95;;
23586;SDS011;11971;51.148;4.104;2023-05-10T12:47:47;106.22;;;44.58;;
23586;SDS011;11971;51.148;4.104;2023-05-10T12:50:17;107.10;;;45.28;;
23586;SDS011;11971;51.148;4.104;2023-05-10T12:52:44;105.55;;;44.90;;
23586;SDS011;11971;51.148;4.104;2023-05-10T12:55:11;105.95;;;45.80;;
23586;SDS011;11971;51.148;4.104;2023-05-10T12:57:38;102.82;;;44.78;;
23586;SDS011;11971;51.148;4.104;2023-05-10T13:00:05;105.70;;;44.90;;
23586;SDS011;11971;51.148;4.104;2023-05-10T13:02:33;107.43;;;44.60;;
23586;SDS011;11971;51.148;4.104;2023-05-10T13:05:00;107.10;;;45.30;;
23586;SDS011;11971;51.148;4.104;2023-05-10T13:07:28;109.30;;;45.88;;
23586;SDS011;11971;51.148;4.104;2023-05-10T13:09:55;113.07;;;45.90;;
23586;SDS011;11971;51.148;4.104;2023-05-10T13:12:21;106.63;;;45.35;;
23586;SDS011;11971;51.148;4.104;2023-05-10T13:14:48;109.38;;;46.30;;
23586;SDS011;11971;51.148;4.104;2023-05-10T13:17:15;105.80;;;45.65;;
23586;SDS011;11971;51.148;4.104;2023-05-10T13:19:41;110.22;;;46.28;;
23586;SDS011;11971;51.148;4.104;2023-05-10T13:22:08;106.00;;;45.70;;
23586;SDS011;11971;51.148;4.104;2023-05-10T13:24:36;107.28;;;45.50;;
23586;SDS011;11971;51.148;4.104;2023-05-10T13:27:03;109.87;;;46.57;;
23586;SDS011;11971;51.148;4.104;2023-05-10T13:29:30;109.35;;;45.28;;
23586;SDS011;11971;51.148;4.104;2023-05-10T13:31:57;108.97;;;45.72;;
23586;SDS011;11971;51.148;4.104;2023-05-10T13:34:25;107.95;;;45.40;;
23586;SDS011;11971;51.148;4.104;2023-05-10T13:36:52;106.22;;;45.78;;
23586;SDS011;11971;51.148;4.104;2023-05-10T13:39:21;105.70;;;45.90;;
23586;SDS011;11971;51.148;4.104;2023-05-10T13:41:49;110.50;;;45.97;;
23586;SDS011;11971;51.148;4.104;2023-05-10T13:44:16;108.88;;;45.45;;
23586;SDS011;11971;51.148;4.104;2023-05-10T13:46:42;108.10;;;46.08;;
23586;SDS011;11971;51.148;4.104;2023-05-10T13:49:10;108.20;;;46.22;;
23586;SDS011;11971;51.148;4.104;2023-05-10T13:51:36;111.90;;;45.80;;
23586;SDS011;11971;51.148;4.104;2023-05-10T13:54:03;107.90;;;45.45;;
23586;SDS011;11971;51.148;4.104;2023-05-10T13:56:30;105.78;;;45.80;;
23586;SDS011;11971;51.148;4.104;2023-05-10T13:58:58;110.50;;;46.33;;
23586;SDS011;11971;51.148;4.104;2023-05-10T14:01:25;106.80;;;45.55;;
23586;SDS011;11971;51.148;4.104;2023-05-10T14:03:52;108.32;;;45.17;;
23586;SDS011;11971;51.148;4.104;2023-05-10T14:06:19;104.93;;;44.35;;
23586;SDS011;11971;51.148;4.104;2023-05-10T14:08:45;104.13;;;44.60;;
23586;SDS011;11971;51.148;4.104;2023-05-10T14:11:12;109.40;;;45.38;;
23586;SDS011;11971;51.148;4.104;2023-05-10T14:13:39;107.57;;;46.03;;
23586;SDS011;11971;51.148;4.104;2023-05-10T14:16:07;115.28;;;47.58;;
23586;SDS011;11971;51.148;4.104;2023-05-10T14:18:36;110.80;;;47.45;;
23586;SDS011;11971;51.148;4.104;2023-05-10T14:21:03;101.78;;;44.30;;
23586;SDS011;11971;51.148;4.104;2023-05-10T14:23:30;95.20;;;41.03;;
23586;SDS011;11971;51.148;4.104;2023-05-10T14:25:56;93.72;;;41.00;;